Time;durP1;ratioP1;P1;durP2;ratioP2;P2;SDS_P1;SDS_P2;PMS_P1;PMS_P2;Temp;Humidity;BMP_temperature;BMP_pressure;BME280_temperature;BME280_humidity;BME280_pressure;Samples;Min_cycle;Max_cycle;Signal;HPM_P1;HPM_P2
2023/12/27 00:00:18;;;;;;;5.95;1.77;;;;;;;4.72;62.54;100517.63;10490179;28;20966;-62
2023/12/27 00:05:20;;;;;;;5.20;2.08;;;;;;;4.60;62.88;100519.69;10506974;28;20044;-62
2023/12/27 00:10:22;;;;;;;3.40;1.45;;;;;;;4.69;62.88;100509.09;10505942;28;20044;-62
2023/12/27 00:15:24;;;;;;;3.72;2.33;;;;;;;4.72;62.81;100512.44;10505046;28;20185;-61
2023/12/27 00:20:26;;;;;;;2.17;1.38;;;;;;;4.70;63.02;100524.59;10487840;28;20050;-61
2023/12/27 00:25:28;;;;;;;4.35;2.10;;;;;;;4.64;62.72;100521.28;10507598;28;20230;-61
2023/12/27 00:30:31;;;;;;;2.70;1.48;;;;;;;4.39;62.98;100526.25;10504776;28;20162;-61
2023/12/27 00:35:33;;;;;;;5.38;1.80;;;;;;;4.40;63.59;100521.94;10508310;28;20056;-61
2023/12/27 00:40:35;;;;;;;4.43;1.98;;;;;;;4.47;63.43;100515.72;10503823;28;20096;-61
2023/12/27 00:45:37;;;;;;;3.72;2.15;;;;;;;4.45;63.45;100514.91;10509007;28;20052;-61
2023/12/27 00:50:39;;;;;;;5.25;1.73;;;;;;;4.40;63.46;100512.44;10497969;28;20046;-61
2023/12/27 00:55:41;;;;;;;6.28;2.15;;;;;;;4.34;63.46;100517.75;10513473;28;20055;-61
2023/12/27 01:00:43;;;;;;;3.63;1.65;;;;;;;4.27;63.51;100520.56;10498225;28;20722;-61
2023/12/27 01:05:45;;;;;;;6.65;1.83;;;;;;;4.22;63.68;100522.41;10496663;28;20054;-61
2023/12/27 01:10:47;;;;;;;3.67;1.92;;;;;;;4.18;63.64;100519.03;10497002;28;20559;-61
2023/12/27 01:15:49;;;;;;;5.63;2.28;;;;;;;3.94;63.76;100514.44;10514752;28;20067;-61
2023/12/27 01:20:51;;;;;;;6.75;2.65;;;;;;;3.75;64.22;100514.00;10513836;28;20127;-63
2023/12/27 01:25:53;;;;;;;3.33;1.80;;;;;;;3.84;64.26;100531.06;10513804;28;20132;-63
2023/12/27 01:30:55;;;;;;;5.07;2.22;;;;;;;3.93;64.20;100528.25;10490440;28;20067;-63
2023/12/27 01:35:58;;;;;;;4.68;1.95;;;;;;;4.02;64.33;100534.97;10513752;28;20059;-63
2023/12/27 01:41:00;;;;;;;15.20;2.55;;;;;;;3.96;64.22;100535.97;10512841;28;20044;-62
2023/12/27 01:46:03;;;;;;;6.13;2.53;;;;;;;3.94;64.17;100527.41;10497376;28;20075;-63
2023/12/27 01:51:06;;;;;;;5.18;1.75;;;;;;;3.99;64.07;100535.88;10495161;28;20101;-62
2023/12/27 01:56:08;;;;;;;4.63;1.83;;;;;;;4.03;64.59;100534.91;10514421;28;20078;-62
2023/12/27 02:01:11;;;;;;;3.95;2.35;;;;;;;4.11;64.20;100527.81;10492186;28;20081;-63
2023/12/27 02:06:13;;;;;;;4.68;1.90;;;;;;;4.11;64.37;100534.75;10496769;28;20712;-62
2023/12/27 02:11:15;;;;;;;2.97;2.00;;;;;;;4.15;64.17;100536.38;10519477;28;20040;-62
2023/12/27 02:16:20;;;;;;;2.90;1.85;;;;;;;4.13;64.26;100530.41;10476333;28;20050;-63
2023/12/27 02:21:24;;;;;;;4.85;2.47;;;;;;;4.05;64.22;100530.56;10487730;28;20040;-62
2023/12/27 02:26:27;;;;;;;6.82;2.17;;;;;;;4.06;64.08;100527.09;10521942;28;20055;-63
2023/12/27 02:31:28;;;;;;;6.55;2.28;;;;;;;3.96;64.23;100530.78;10521235;28;20127;-62
2023/12/27 02:36:31;;;;;;;3.92;2.20;;;;;;;3.93;64.64;100517.06;10498631;28;20051;-62
2023/12/27 02:41:33;;;;;;;2.92;1.58;;;;;;;4.19;64.55;100502.59;10519868;28;20044;-62
2023/12/27 02:46:35;;;;;;;3.05;1.60;;;;;;;4.35;64.35;100490.97;10537676;27;20052;-62
2023/12/27 02:51:37;;;;;;;2.78;1.40;;;;;;;4.41;64.07;100497.75;10498030;28;20445;-62
2023/12/27 02:56:39;;;;;;;3.10;1.50;;;;;;;4.46;63.92;100491.56;10516811;28;20051;-63
2023/12/27 03:01:41;;;;;;;2.67;1.55;;;;;;;4.48;64.10;100484.59;10518054;28;20052;-63
2023/12/27 03:06:43;;;;;;;4.75;1.67;;;;;;;4.48;64.37;100487.19;10501919;28;20087;-63
2023/12/27 03:11:45;;;;;;;5.40;2.13;;;;;;;4.52;64.22;100472.41;10517972;28;20050;-62
2023/12/27 03:16:47;;;;;;;3.92;1.95;;;;;;;4.40;64.47;100463.22;10501138;28;20150;-63
2023/12/27 03:21:49;;;;;;;3.70;1.73;;;;;;;4.27;64.45;100456.66;10500097;28;20142;-63
2023/12/27 03:26:51;;;;;;;9.52;2.30;;;;;;;4.23;64.65;100467.16;10495137;28;20044;-63
2023/12/27 03:31:53;;;;;;;4.45;2.22;;;;;;;4.23;64.43;100464.56;10516148;28;20200;-63
2023/12/27 03:36:55;;;;;;;5.68;2.72;;;;;;;4.19;64.66;100457.78;10481302;28;20087;-63
2023/12/27 03:41:57;;;;;;;6.53;2.55;;;;;;;4.35;64.57;100453.88;10497302;28;20046;-62
2023/12/27 03:46:59;;;;;;;6.32;2.72;;;;;;;4.17;64.47;100452.59;10500584;28;20060;-62
2023/12/27 03:52:01;;;;;;;3.75;2.08;;;;;;;4.17;65.01;100454.38;10482867;28;20068;-62
2023/12/27 03:57:04;;;;;;;4.72;2.00;;;;;;;4.27;64.54;100450.66;10496245;28;20055;-62
2023/12/27 04:02:07;;;;;;;4.65;2.35;;;;;;;4.34;64.53;100450.44;10499107;28;20584;-62
2023/12/27 04:07:09;;;;;;;4.57;2.67;;;;;;;4.34;64.25;100445.28;10502102;28;20058;-62
2023/12/27 04:12:11;;;;;;;3.55;1.98;;;;;;;4.40;64.33;100449.44;10501240;28;20083;-62
2023/12/27 04:17:13;;;;;;;5.43;1.90;;;;;;;4.39;64.09;100447.75;10518467;28;20074;-62
2023/12/27 04:22:15;;;;;;;4.30;2.00;;;;;;;4.39;63.98;100443.38;10484445;28;20043;-62
2023/12/27 04:27:17;;;;;;;3.55;2.10;;;;;;;4.36;64.15;100438.31;10499978;28;20052;-63
2023/12/27 04:32:19;;;;;;;7.20;2.00;;;;;;;4.41;63.91;100428.66;10514575;28;20455;-62
2023/12/27 04:37:21;;;;;;;5.18;2.20;;;;;;;4.42;64.04;100427.78;10533243;28;20245;-61
2023/12/27 04:42:23;;;;;;;9.15;2.38;;;;;;;4.51;63.84;100427.56;10516544;28;20051;-61
2023/12/27 04:47:25;;;;;;;4.90;2.10;;;;;;;4.67;63.82;100423.66;10515109;28;20063;-63
2023/12/27 04:52:27;;;;;;;4.53;1.98;;;;;;;4.72;63.64;100415.72;10497320;28;20495;-60
2023/12/27 04:57:29;;;;;;;8.10;2.13;;;;;;;4.68;63.43;100417.56;10514509;28;20048;-60
2023/12/27 05:02:32;;;;;;;4.63;1.90;;;;;;;4.57;63.72;100413.56;10494345;28;20047;-61
2023/12/27 05:07:34;;;;;;;5.38;2.22;;;;;;;4.53;63.71;100405.06;10513483;28;20040;-61
2023/12/27 05:12:36;;;;;;;3.78;2.13;;;;;;;4.63;63.41;100406.50;10491636;28;20492;-61
2023/12/27 05:17:38;;;;;;;7.65;2.35;;;;;;;4.58;63.41;100402.31;10495913;28;20048;-61
2023/12/27 05:22:40;;;;;;;4.18;2.30;;;;;;;4.53;63.80;100397.28;10496590;28;20074;-61
2023/12/27 05:27:42;;;;;;;8.90;2.42;;;;;;;4.56;63.77;100396.31;10513402;28;20065;-62
2023/12/27 05:32:44;;;;;;;3.70;1.83;;;;;;;4.61;63.75;100392.72;10513724;28;20052;-62
2023/12/27 05:37:46;;;;;;;4.95;2.10;;;;;;;4.63;63.75;100401.31;10494899;28;20072;-61
2023/12/27 05:42:48;;;;;;;6.00;2.40;;;;;;;4.74;63.73;100393.19;10513387;28;20051;-62
2023/12/27 05:47:51;;;;;;;6.15;2.30;;;;;;;4.93;63.59;100391.78;10511986;28;20527;-60
2023/12/27 05:52:54;;;;;;;3.80;1.80;;;;;;;4.94;63.11;100390.91;10510605;28;20510;-61
2023/12/27 05:57:56;;;;;;;8.65;2.20;;;;;;;4.94;63.13;100390.06;10495267;28;20130;-61
2023/12/27 06:02:59;;;;;;;3.35;1.90;;;;;;;4.92;63.21;100389.25;10511630;28;20564;-61
2023/12/27 06:08:01;;;;;;;5.10;2.25;;;;;;;5.01;63.12;100389.81;10527010;28;20059;-60
2023/12/27 06:13:03;;;;;;;4.07;2.28;;;;;;;5.04;62.89;100389.75;10512447;28;20067;-61
2023/12/27 06:18:05;;;;;;;5.60;2.17;;;;;;;5.05;62.94;100394.00;10511686;28;20048;-61
2023/12/27 06:23:07;;;;;;;3.95;2.03;;;;;;;5.06;62.87;100385.34;10514720;28;20131;-61
2023/12/27 06:28:10;;;;;;;2.85;1.83;;;;;;;5.11;62.98;100399.00;10494160;28;20120;-62
2023/12/27 06:33:12;;;;;;;5.38;2.05;;;;;;;5.20;62.77;100396.16;10509733;28;20088;-61
2023/12/27 06:38:14;;;;;;;5.53;2.20;;;;;;;5.27;62.68;100395.06;10493747;28;20601;-62
2023/12/27 06:43:16;;;;;;;3.97;2.13;;;;;;;5.34;62.70;100385.34;10491393;28;20046;-62
2023/12/27 06:48:18;;;;;;;9.13;2.83;;;;;;;5.32;62.72;100388.00;10512440;28;20048;-61
2023/12/27 06:53:20;;;;;;;6.10;2.78;;;;;;;5.36;62.63;100391.34;10513396;28;20452;-61
2023/12/27 06:58:23;;;;;;;4.07;1.85;;;;;;;5.22;62.71;100376.22;10517340;28;20618;-63
2023/12/27 07:03:25;;;;;;;4.18;2.45;;;;;;;5.14;62.86;100373.00;10520687;28;20040;-62
2023/12/27 07:08:30;;;;;;;5.15;1.98;;;;;;;5.27;62.80;100374.31;10518993;28;20835;-63
2023/12/27 07:13:32;;;;;;;5.47;2.00;;;;;;;5.35;62.60;100387.06;10518377;28;20055;-63
2023/12/27 07:18:34;;;;;;;3.72;2.17;;;;;;;5.35;62.55;100405.22;10520619;28;20048;-61
2023/12/27 07:23:36;;;;;;;7.97;2.72;;;;;;;5.33;62.74;100394.88;10503120;28;20397;-62
2023/12/27 07:28:39;;;;;;;6.45;2.70;;;;;;;5.44;62.62;100389.34;10502642;28;20051;-61
2023/12/27 07:33:41;;;;;;;4.78;2.42;;;;;;;5.52;62.59;100374.38;10520501;28;21004;-61
2023/12/27 07:38:43;;;;;;;4.53;2.40;;;;;;;5.61;62.56;100352.50;10520421;28;20093;-62
2023/12/27 07:43:45;;;;;;;5.30;2.00;;;;;;;5.70;62.42;100347.84;10502913;28;20050;-62
2023/12/27 07:48:47;;;;;;;4.88;2.50;;;;;;;5.74;62.48;100343.41;10519784;28;20076;-62
2023/12/27 07:53:50;;;;;;;4.50;2.03;;;;;;;5.79;62.35;100323.34;10520475;28;20044;-62
2023/12/27 07:58:53;;;;;;;5.78;2.00;;;;;;;5.59;62.53;100299.81;10519863;28;20044;-62
2023/12/27 08:03:56;;;;;;;4.30;2.10;;;;;;;5.55;62.72;100315.47;10518186;28;20052;-62
2023/12/27 08:08:58;;;;;;;15.02;2.45;;;;;;;5.44;62.76;100314.13;10515766;28;20055;-62
2023/12/27 08:14:00;;;;;;;6.80;1.88;;;;;;;5.48;62.95;100321.78;10501051;28;20507;-62
2023/12/27 08:19:02;;;;;;;3.92;2.58;;;;;;;5.54;62.54;100306.00;10518094;28;20054;-62
2023/12/27 08:24:07;;;;;;;3.53;1.75;;;;;;;5.51;62.68;100290.53;10516729;28;20750;-62
2023/12/27 08:29:09;;;;;;;3.03;2.05;;;;;;;5.40;62.68;100284.00;10517522;28;20040;-61
2023/12/27 08:34:11;;;;;;;5.15;2.47;;;;;;;5.65;62.74;100310.84;10499604;28;20044;-61
2023/12/27 08:39:13;;;;;;;3.58;1.90;;;;;;;5.67;62.81;100315.97;10516126;28;20131;-61
2023/12/27 08:44:15;;;;;;;4.80;2.28;;;;;;;5.95;62.47;100319.31;10498701;28;20059;-62
2023/12/27 08:49:17;;;;;;;4.80;1.98;;;;;;;6.09;62.32;100324.88;10518263;28;20135;-61
2023/12/27 08:54:19;;;;;;;5.10;2.50;;;;;;;6.35;61.94;100330.84;10498626;28;20496;-70
2023/12/27 08:59:21;;;;;;;5.38;2.05;;;;;;;6.44;61.57;100342.69;10533092;27;20032;-69
2023/12/27 09:04:24;;;;;;;2.92;1.85;;;;;;;6.55;61.29;100342.28;10490806;28;20690;-71
2023/12/27 09:09:27;;;;;;;8.75;2.28;;;;;;;6.54;61.52;100307.66;10510920;28;20040;-70
2023/12/27 09:14:29;;;;;;;7.93;2.30;;;;;;;6.66;61.46;100315.00;10489970;28;20068;-71
2023/12/27 09:19:31;;;;;;;4.50;2.20;;;;;;;6.75;61.19;100316.41;10507888;28;20071;-69
2023/12/27 09:24:34;;;;;;;5.80;2.38;;;;;;;6.80;61.19;100301.47;10507088;28;20070;-70
2023/12/27 09:29:36;;;;;;;4.07;2.03;;;;;;;6.88;61.04;100299.41;10504956;28;20093;-70
2023/12/27 09:34:38;;;;;;;5.65;2.10;;;;;;;6.93;61.06;100276.69;10501617;28;20189;-70
2023/12/27 09:39:41;;;;;;;7.70;2.08;;;;;;;7.02;61.14;100271.13;10483919;28;20054;-69
2023/12/27 09:44:46;;;;;;;5.28;2.05;;;;;;;6.97;60.93;100266.13;10501236;28;20145;-71
2023/12/27 09:49:48;;;;;;;6.50;2.13;;;;;;;6.89;61.26;100262.97;10504229;28;20058;-70
2023/12/27 09:54:50;;;;;;;8.20;2.65;;;;;;;6.91;61.31;100255.09;10515495;28;20066;-71
2023/12/27 09:59:55;;;;;;;7.50;2.65;;;;;;;6.97;61.24;100241.84;10492103;28;20047;-70
2023/12/27 10:05:10;;;;;;;5.43;2.47;;;;;;;7.03;60.99;100249.41;10494952;28;20141;-71
2023/12/27 10:10:12;;;;;;;5.55;2.72;;;;;;;7.10;61.25;100248.28;10493016;28;20502;-69
2023/12/27 10:15:28;;;;;;;5.13;2.72;;;;;;;7.32;60.75;100243.03;10472190;28;20044;-69
2023/12/27 10:20:38;;;;;;;5.43;2.55;;;;;;;7.31;60.88;100212.69;10492039;28;20105;-70
2023/12/27 10:25:42;;;;;;;5.40;2.73;;;;;;;7.23;61.20;100205.22;10490768;28;20051;-70
2023/12/27 10:30:45;;;;;;;5.25;2.22;;;;;;;7.29;61.13;100202.38;10510146;28;20516;-70
2023/12/27 10:35:47;;;;;;;4.80;2.00;;;;;;;7.45;60.84;100173.97;10509279;28;20056;-71
2023/12/27 10:40:52;;;;;;;3.70;2.50;;;;;;;7.57;60.95;100181.25;10507347;28;20048;-72
2023/12/27 10:45:54;;;;;;;6.35;2.22;;;;;;;7.47;61.07;100172.97;10509552;28;20139;-71
2023/12/27 10:50:56;;;;;;;9.20;3.58;;;;;;;7.40;61.18;100161.16;10489974;28;20036;-72
2023/12/27 10:56:01;;;;;;;4.68;2.40;;;;;;;7.31;61.49;100164.13;10493272;28;20692;-71
2023/12/27 11:01:04;;;;;;;6.35;2.67;;;;;;;7.31;61.64;100160.66;10488208;28;20078;-71
2023/12/27 11:06:07;;;;;;;5.68;2.50;;;;;;;7.28;62.19;100159.06;10523417;27;20071;-70
2023/12/27 11:11:13;;;;;;;6.22;3.13;;;;;;;7.39;62.37;100154.22;10510349;28;20062;-71
2023/12/27 11:16:17;;;;;;;6.32;2.75;;;;;;;7.37;62.63;100148.25;10510289;28;20127;-71
2023/12/27 11:21:19;;;;;;;4.00;2.30;;;;;;;7.48;62.81;100133.03;10491980;28;20564;-72
2023/12/27 11:26:22;;;;;;;6.13;2.85;;;;;;;7.70;62.51;100123.34;10506386;28;20050;-71
2023/12/27 11:31:25;;;;;;;4.93;2.40;;;;;;;7.79;62.49;100109.09;10509684;28;20142;-72
2023/12/27 11:36:28;;;;;;;7.55;2.85;;;;;;;7.94;62.50;100108.34;10507004;28;20060;-75
2023/12/27 11:41:32;;;;;;;3.35;1.85;;;;;;;7.97;63.00;100085.66;10505145;28;20081;-74
2023/12/27 11:46:35;;;;;;;5.18;1.70;;;;;;;8.12;62.91;100091.09;10485860;28;20048;-74
2023/12/27 11:51:39;;;;;;;4.13;1.95;;;;;;;8.25;63.05;100072.19;10501041;28;20052;-74
2023/12/27 11:56:42;;;;;;;7.10;1.73;;;;;;;8.45;62.79;100081.63;10507281;28;20047;-74
2023/12/27 12:01:45;;;;;;;1.88;1.25;;;;;;;8.56;62.73;100064.56;10505505;28;20048;-73
2023/12/27 12:06:53;;;;;;;1.38;1.02;;;;;;;8.61;62.96;100070.38;10504839;28;20043;-73
2023/12/27 12:11:55;;;;;;;1.35;1.00;;;;;;;8.67;62.86;100067.47;10507266;28;20928;-73
2023/12/27 12:16:58;;;;;;;2.00;0.95;;;;;;;8.77;62.74;100067.88;10520360;28;20645;-73
2023/12/27 12:22:02;;;;;;;2.63;1.23;;;;;;;8.83;62.60;100060.56;10487376;28;20048;-72
2023/12/27 12:27:04;;;;;;;1.63;1.00;;;;;;;9.03;62.23;100056.97;10508137;28;20200;-73
2023/12/27 12:32:07;;;;;;;2.08;1.20;;;;;;;9.14;62.10;100041.59;10501780;28;20044;-74
2023/12/27 12:37:10;;;;;;;1.95;1.15;;;;;;;9.35;61.72;100029.19;10485840;28;20044;-74
2023/12/27 12:42:12;;;;;;;0.70;0.70;;;;;;;9.40;61.53;100027.19;10507389;28;20051;-74
2023/12/27 12:47:15;;;;;;;1.75;0.90;;;;;;;9.42;61.22;100018.31;10503751;28;20055;-74
2023/12/27 12:52:17;;;;;;;4.15;2.08;;;;;;;9.39;61.08;100005.44;10505337;28;20039;-72
2023/12/27 12:57:20;;;;;;;1.00;0.73;;;;;;;9.44;60.93;99995.59;10506418;28;20176;-72
2023/12/27 13:02:23;;;;;;;1.83;0.88;;;;;;;9.45;60.54;99986.84;10506185;28;20040;-73
2023/12/27 13:07:28;;;;;;;1.10;0.95;;;;;;;9.50;60.36;99978.78;10501556;28;20052;-73
2023/12/27 13:12:31;;;;;;;1.33;1.00;;;;;;;9.53;60.18;99975.97;10506832;28;20047;-73
2023/12/27 13:17:34;;;;;;;1.20;0.95;;;;;;;9.55;60.07;99963.69;10501869;28;20058;-73
2023/12/27 13:22:36;;;;;;;2.75;1.30;;;;;;;9.50;59.23;99957.88;10499829;28;20144;-71
2023/12/27 13:27:38;;;;;;;3.60;1.20;;;;;;;9.53;59.49;99955.94;10486630;28;20056;-72
2023/12/27 13:32:41;;;;;;;1.48;1.05;;;;;;;9.59;59.45;99937.31;10486753;28;20056;-73
2023/12/27 13:37:43;;;;;;;1.38;0.82;;;;;;;9.49;59.07;99927.47;10483474;28;20124;-73
2023/12/27 13:42:45;;;;;;;3.28;1.17;;;;;;;9.48;59.07;99928.41;10484756;28;20135;-73
2023/12/27 13:47:47;;;;;;;0.90;0.70;;;;;;;9.38;59.12;99919.41;10497748;28;20043;-72
2023/12/27 13:52:49;;;;;;;1.88;0.93;;;;;;;9.44;59.02;99909.44;10484990;28;20040;-73
2023/12/27 13:57:51;;;;;;;4.10;1.52;;;;;;;9.42;59.16;99908.69;10504385;28;20733;-73
2023/12/27 14:02:54;;;;;;;3.92;1.33;;;;;;;9.38;58.93;99904.56;10499707;28;20104;-73
2023/12/27 14:07:56;;;;;;;2.17;1.35;;;;;;;9.30;58.68;99895.50;10501642;28;20067;-73
2023/12/27 14:12:58;;;;;;;2.17;1.27;;;;;;;9.26;59.09;99892.19;10503771;28;20051;-73
2023/12/27 14:18:00;;;;;;;3.15;1.20;;;;;;;9.28;59.14;99892.13;10505283;28;20040;-74
2023/12/27 14:23:03;;;;;;;2.95;1.10;;;;;;;9.32;59.18;99893.66;10499912;28;20481;-73
2023/12/27 14:28:06;;;;;;;4.95;1.05;;;;;;;9.40;59.00;99896.66;10484754;28;20496;-73
2023/12/27 14:33:08;;;;;;;2.08;1.10;;;;;;;9.42;59.15;99890.41;10502735;28;20048;-73
2023/12/27 14:38:10;;;;;;;2.33;1.40;;;;;;;9.41;58.91;99896.56;10503793;28;20742;-74
2023/12/27 14:43:13;;;;;;;3.42;1.67;;;;;;;9.40;58.94;99887.03;10503771;28;20121;-74
2023/12/27 14:48:15;;;;;;;3.88;1.25;;;;;;;9.34;58.94;99897.00;10504000;28;20074;-73
2023/12/27 14:53:17;;;;;;;2.95;1.48;;;;;;;9.31;58.82;99895.41;10497577;28;20051;-73
2023/12/27 14:58:19;;;;;;;3.08;1.40;;;;;;;9.19;59.04;99883.03;10505012;28;20503;-74
2023/12/27 15:03:21;;;;;;;4.47;1.80;;;;;;;8.98;59.12;99872.91;10501408;28;20123;-73
2023/12/27 15:08:25;;;;;;;2.33;1.23;;;;;;;8.83;59.10;99871.97;10486120;28;20139;-73
2023/12/27 15:13:27;;;;;;;2.65;1.30;;;;;;;8.61;59.27;99872.25;10499275;28;20476;-74
2023/12/27 15:18:30;;;;;;;1.45;1.00;;;;;;;8.37;59.65;99870.94;10509997;28;20035;-72
2023/12/27 15:23:33;;;;;;;3.60;1.30;;;;;;;8.24;59.72;99853.41;10493629;28;20377;-74
2023/12/27 15:28:35;;;;;;;6.40;1.65;;;;;;;8.09;60.00;99862.81;10492831;28;20123;-73
2023/12/27 15:33:37;;;;;;;5.65;1.70;;;;;;;8.09;60.07;99860.22;10504969;28;20187;-75
2023/12/27 15:38:40;;;;;;;4.85;1.50;;;;;;;8.04;60.35;99857.00;10508522;28;20048;-73
2023/12/27 15:43:42;;;;;;;1.52;1.20;;;;;;;7.95;60.49;99855.72;10488809;28;20036;-74
2023/12/27 15:48:45;;;;;;;4.00;1.67;;;;;;;7.80;60.49;99847.81;10510280;28;20048;-73
2023/12/27 15:53:49;;;;;;;3.70;1.73;;;;;;;7.61;60.77;99840.06;10485508;28;20047;-75
2023/12/27 15:58:55;;;;;;;3.15;1.70;;;;;;;7.46;61.19;99834.75;10510204;28;20076;-64
2023/12/27 16:03:58;;;;;;;7.32;2.10;;;;;;;7.36;61.42;99834.38;10505302;28;20389;-64
2023/12/27 16:09:01;;;;;;;4.60;2.50;;;;;;;7.21;61.69;99832.50;10509734;28;20059;-65
2023/12/27 16:14:04;;;;;;;7.68;2.80;;;;;;;7.17;61.68;99820.56;10484369;28;20048;-65
2023/12/27 16:19:07;;;;;;;12.23;3.13;;;;;;;7.13;61.76;99821.63;10507654;28;20468;-65
2023/12/27 16:24:09;;;;;;;6.63;2.15;;;;;;;7.10;61.76;99809.59;10506859;28;20047;-65
2023/12/27 16:29:11;;;;;;;4.28;2.13;;;;;;;7.02;62.14;99797.91;10511605;28;20052;-65
2023/12/27 16:34:13;;;;;;;4.68;2.35;;;;;;;6.88;62.11;99797.66;10509092;28;20044;-65
2023/12/27 16:39:16;;;;;;;3.55;1.98;;;;;;;6.83;62.38;99786.66;10506230;28;20097;-65
2023/12/27 16:44:23;;;;;;;6.95;2.13;;;;;;;6.77;62.36;99769.59;10489406;28;20052;-65
2023/12/27 16:49:27;;;;;;;4.55;2.10;;;;;;;6.76;62.47;99765.31;10506202;28;20063;-65
2023/12/27 16:54:29;;;;;;;4.53;2.10;;;;;;;6.73;62.74;99770.66;10505698;28;20688;-64
2023/12/27 16:59:32;;;;;;;5.45;2.80;;;;;;;6.71;62.89;99769.03;10506542;28;20036;-66
2023/12/27 17:04:34;;;;;;;7.28;2.97;;;;;;;6.64;62.96;99778.88;10471819;28;20489;-65
2023/12/27 17:09:36;;;;;;;9.05;3.53;;;;;;;6.68;62.89;99784.75;10507250;28;21384;-65
2023/12/27 17:14:39;;;;;;;5.20;2.72;;;;;;;6.45;63.50;99772.00;10483454;28;20043;-64
2023/12/27 17:19:41;;;;;;;5.60;2.85;;;;;;;6.48;63.38;99771.84;10504801;28;20043;-64
2023/12/27 17:24:43;;;;;;;8.55;3.47;;;;;;;6.47;63.62;99764.97;10504801;28;20047;-64
2023/12/27 17:29:46;;;;;;;5.53;3.10;;;;;;;6.43;63.54;99759.06;10502279;28;20056;-65
2023/12/27 17:34:48;;;;;;;9.15;4.07;;;;;;;6.36;63.50;99765.47;10483644;28;21245;-64
2023/12/27 17:39:51;;;;;;;9.25;4.65;;;;;;;6.27;63.62;99761.50;10502263;28;20079;-64
2023/12/27 17:44:53;;;;;;;6.55;3.85;;;;;;;6.18;63.81;99748.06;10505252;28;20103;-64
2023/12/27 17:49:55;;;;;;;7.45;3.42;;;;;;;6.04;64.10;99742.66;10504960;28;20993;-64
2023/12/27 17:54:58;;;;;;;6.22;2.38;;;;;;;6.03;64.04;99739.22;10480432;28;20059;-64
2023/12/27 18:00:01;;;;;;;4.57;2.50;;;;;;;5.96;64.12;99731.78;10505007;28;20504;-64
2023/12/27 18:05:05;;;;;;;6.25;2.97;;;;;;;5.88;64.55;99729.50;10476153;28;20193;-64
2023/12/27 18:10:07;;;;;;;3.42;1.83;;;;;;;5.84;64.51;99732.31;10489687;28;20909;-64
2023/12/27 18:15:09;;;;;;;5.82;3.17;;;;;;;5.76;64.52;99737.00;10502702;28;20141;-65
2023/12/27 18:20:12;;;;;;;4.10;2.53;;;;;;;5.67;64.84;99716.63;10504632;28;20059;-64
2023/12/27 18:25:15;;;;;;;4.90;1.80;;;;;;;5.54;64.74;99721.47;10496451;28;20411;-63
2023/12/27 18:30:17;;;;;;;4.47;1.75;;;;;;;5.37;65.21;99711.81;10505621;28;20048;-64
2023/12/27 18:35:20;;;;;;;4.88;2.17;;;;;;;5.18;65.14;99715.25;10501804;28;20263;-64
2023/12/27 18:40:22;;;;;;;3.67;1.65;;;;;;;4.92;65.79;99710.28;10505190;28;20048;-64
2023/12/27 18:45:24;;;;;;;4.88;2.17;;;;;;;4.96;65.81;99711.84;10505445;28;20040;-64
2023/12/27 18:50:27;;;;;;;4.20;2.40;;;;;;;4.95;65.78;99707.56;10492279;28;20040;-63
2023/12/27 18:55:29;;;;;;;8.07;3.35;;;;;;;4.97;65.69;99705.75;10495187;28;20044;-63
2023/12/27 19:00:31;;;;;;;5.53;3.10;;;;;;;4.96;65.61;99696.31;10495868;28;20044;-63
2023/12/27 19:05:33;;;;;;;8.57;4.70;;;;;;;4.86;65.65;99713.94;10512519;28;20051;-62
2023/12/27 19:10:35;;;;;;;5.45;2.78;;;;;;;4.75;65.53;99695.41;10513740;28;20400;-63
2023/12/27 19:15:37;;;;;;;10.88;3.35;;;;;;;4.57;65.83;99696.16;10486259;28;20474;-63
2023/12/27 19:20:39;;;;;;;4.13;2.42;;;;;;;4.46;66.27;99712.09;10511902;28;20678;-63
2023/12/27 19:25:41;;;;;;;6.55;2.70;;;;;;;4.40;66.74;99714.06;10511490;28;20044;-63
2023/12/27 19:30:44;;;;;;;5.88;2.88;;;;;;;4.50;66.53;99716.25;10512830;28;20051;-64
2023/12/27 19:35:46;;;;;;;8.15;3.70;;;;;;;4.53;66.15;99723.91;10512784;28;20060;-63
2023/12/27 19:40:49;;;;;;;7.00;3.45;;;;;;;4.45;66.15;99712.16;10513317;28;20130;-64
2023/12/27 19:45:51;;;;;;;8.05;4.20;;;;;;;4.45;66.27;99713.00;10511651;28;20101;-63
2023/12/27 19:50:57;;;;;;;7.28;4.60;;;;;;;4.41;66.11;99710.59;10518769;28;20056;-63
2023/12/27 19:55:59;;;;;;;7.72;3.90;;;;;;;4.38;66.42;99726.22;10515624;28;20507;-64
2023/12/27 20:01:01;;;;;;;8.20;4.10;;;;;;;4.20;66.70;99717.41;10514263;28;20403;-63
2023/12/27 20:06:04;;;;;;;6.28;3.42;;;;;;;4.25;66.56;99732.78;10495729;28;20052;-63
2023/12/27 20:11:06;;;;;;;6.28;2.53;;;;;;;4.17;66.79;99733.03;10517257;28;20059;-63
2023/12/27 20:16:08;;;;;;;4.50;2.83;;;;;;;4.09;66.82;99729.06;10516765;28;20088;-63
2023/12/27 20:21:10;;;;;;;7.32;3.63;;;;;;;4.15;66.96;99723.66;10514263;28;20510;-63
2023/12/27 20:26:12;;;;;;;8.80;4.35;;;;;;;4.09;66.92;99711.78;10517562;28;20446;-63
2023/12/27 20:31:14;;;;;;;9.38;3.40;;;;;;;4.07;66.77;99682.53;10515544;28;20047;-64
2023/12/27 20:36:17;;;;;;;7.05;3.20;;;;;;;4.18;67.04;99682.97;10492264;28;20090;-64
2023/12/27 20:41:20;;;;;;;9.27;3.65;;;;;;;4.29;66.87;99680.81;10512874;28;20047;-63
2023/12/27 20:46:22;;;;;;;6.65;3.33;;;;;;;4.13;66.62;99669.34;10493244;28;20130;-64
2023/12/27 20:51:24;;;;;;;7.55;4.18;;;;;;;3.96;66.56;99666.56;10514966;28;20071;-63
2023/12/27 20:56:26;;;;;;;6.25;3.17;;;;;;;3.77;66.38;99668.97;10493046;28;20048;-64
2023/12/27 21:01:28;;;;;;;7.22;3.50;;;;;;;3.62;67.03;99658.34;10513021;28;20504;-63
2023/12/27 21:06:30;;;;;;;6.32;3.30;;;;;;;3.60;67.07;99673.88;10514885;28;20071;-63
2023/12/27 21:11:42;;;;;;;5.95;3.25;;;;;;;3.33;66.87;99659.34;10507665;28;20036;-64
2023/12/27 21:16:44;;;;;;;4.50;2.83;;;;;;;3.35;67.37;99657.56;10511584;28;20054;-64
2023/12/27 21:21:46;;;;;;;6.07;2.97;;;;;;;3.35;67.07;99679.97;10512947;28;20051;-63
2023/12/27 21:26:49;;;;;;;6.30;3.22;;;;;;;3.26;67.61;99686.28;10511257;28;20051;-64
2023/12/27 21:31:51;;;;;;;6.88;4.22;;;;;;;3.29;67.20;99687.94;10509880;28;20128;-63
2023/12/27 21:36:53;;;;;;;6.35;3.10;;;;;;;3.28;67.53;99693.97;10491299;28;20534;-63
2023/12/27 21:41:57;;;;;;;5.88;3.22;;;;;;;3.13;67.53;99702.28;10512207;28;20123;-64
2023/12/27 21:47:01;;;;;;;5.90;3.22;;;;;;;3.03;67.88;99699.97;10512082;28;20047;-64
2023/12/27 21:52:03;;;;;;;6.93;3.13;;;;;;;3.17;67.71;99699.53;10510380;28;20047;-63
2023/12/27 21:57:05;;;;;;;9.35;3.53;;;;;;;3.15;67.77;99700.47;10512721;28;20048;-64
2023/12/27 22:02:08;;;;;;;7.13;2.90;;;;;;;3.23;67.58;99709.66;10512818;28;20063;-64
2023/12/27 22:07:10;;;;;;;10.95;4.05;;;;;;;3.22;67.75;99712.28;10512823;28;20724;-64
2023/12/27 22:12:15;;;;;;;6.30;3.22;;;;;;;3.14;67.78;99709.97;10491666;28;20043;-63
2023/12/27 22:17:17;;;;;;;6.50;3.00;;;;;;;3.07;67.36;99704.16;10512207;28;20897;-64
2023/12/27 22:22:24;;;;;;;6.57;3.22;;;;;;;2.92;67.95;99694.34;10512815;28;21266;-63
2023/12/27 22:27:27;;;;;;;4.55;3.15;;;;;;;3.05;67.78;99698.19;10515660;28;20048;-64
2023/12/27 22:32:30;;;;;;;5.43;3.05;;;;;;;3.16;67.82;99715.06;10537842;27;20057;-63
2023/12/27 22:37:32;;;;;;;8.02;3.88;;;;;;;3.04;68.07;99706.84;10519209;28;20131;-63
2023/12/27 22:42:34;;;;;;;10.15;3.47;;;;;;;2.95;67.74;99704.56;10520450;28;20039;-64
2023/12/27 22:47:36;;;;;;;10.40;5.18;;;;;;;2.84;67.45;99713.53;10518438;28;20121;-63
2023/12/27 22:52:38;;;;;;;11.27;4.70;;;;;;;2.84;67.78;99696.31;10536016;27;20032;-63
2023/12/27 22:57:40;;;;;;;6.63;3.38;;;;;;;2.77;68.12;99693.97;10498006;28;20043;-63
2023/12/27 23:02:42;;;;;;;9.70;3.88;;;;;;;2.70;68.23;99692.47;10501319;28;20055;-63
2023/12/27 23:07:45;;;;;;;7.00;4.35;;;;;;;2.40;69.17;99677.97;10517671;28;20388;-63
2023/12/27 23:12:47;;;;;;;6.57;3.65;;;;;;;2.50;68.59;99694.84;10520615;28;20451;-63
2023/12/27 23:17:49;;;;;;;7.18;3.22;;;;;;;2.54;68.58;99693.84;10517129;28;20450;-63
2023/12/27 23:22:51;;;;;;;7.80;4.20;;;;;;;2.59;68.58;99687.66;10518330;28;20036;-63
2023/12/27 23:27:53;;;;;;;7.07;3.22;;;;;;;2.52;68.74;99675.00;10496862;28;20477;-64
2023/12/27 23:32:55;;;;;;;8.45;3.92;;;;;;;2.48;68.79;99665.66;10517529;28;20060;-63